Time;durP1;ratioP1;P1;durP2;ratioP2;P2;SDS_P1;SDS_P2;PMS_P1;PMS_P2;Temp;Humidity;BMP_temperature;BMP_pressure;BME280_temperature;BME280_humidity;BME280_pressure;Samples;Min_cycle;Max_cycle;Signal;HPM_P1;HPM_P2
2021/10/09 00:01:23;;;;;;;30.40;23.20;;;;;;;;;;5056068;28;20902;-64
2021/10/09 00:03:50;;;;;;;32.67;23.20;;;;;;;;;;5055382;28;20409;-64
2021/10/09 00:06:16;;;;;;;36.67;21.20;;;;;;;;;;5055523;28;20412;-65
2021/10/09 00:08:42;;;;;;;30.70;20.50;;;;;;;;;;5055615;28;20755;-64
2021/10/09 00:11:15;;;;;;;33.03;19.97;;;;;;;;;;5055248;28;20833;-63
2021/10/09 00:13:41;;;;;;;28.70;21.03;;;;;;;;;;5055341;28;20393;-64
2021/10/09 00:16:07;;;;;;;28.93;20.47;;;;;;;;;;5055236;28;20394;-64
2021/10/09 00:18:33;;;;;;;31.50;20.50;;;;;;;;;;5055292;28;20393;-65
2021/10/09 00:20:59;;;;;;;33.07;22.27;;;;;;;;;;5055148;28;20402;-64
2021/10/09 00:23:25;;;;;;;46.60;21.10;;;;;;;;;;5053921;28;20490;-64
2021/10/09 00:25:54;;;;;;;32.97;19.07;;;;;;;;;;5055404;28;20823;-63
2021/10/09 00:28:21;;;;;;;29.87;21.30;;;;;;;;;;5053090;28;20426;-64
2021/10/09 00:30:47;;;;;;;29.87;21.37;;;;;;;;;;5055000;28;20453;-64
2021/10/09 00:33:13;;;;;;;32.57;20.43;;;;;;;;;;5054975;28;20472;-62
2021/10/09 00:35:39;;;;;;;27.87;20.70;;;;;;;;;;5055184;28;20815;-64
2021/10/09 00:38:05;;;;;;;27.50;18.77;;;;;;;;;;5054772;28;20980;-64
2021/10/09 00:40:31;;;;;;;39.30;20.27;;;;;;;;;;5054882;28;20790;-64
2021/10/09 00:42:57;;;;;;;29.40;19.57;;;;;;;;;;5054809;28;20405;-64
2021/10/09 00:45:23;;;;;;;35.10;20.90;;;;;;;;;;5054791;28;20413;-64
2021/10/09 00:47:51;;;;;;;30.53;20.47;;;;;;;;;;5054754;28;20417;-64
2021/10/09 00:50:17;;;;;;;30.60;20.20;;;;;;;;;;5054668;28;20442;-64
2021/10/09 00:52:44;;;;;;;29.97;20.13;;;;;;;;;;5054646;28;20476;-64
2021/10/09 00:55:11;;;;;;;28.33;18.10;;;;;;;;;;5054626;28;20432;-66
2021/10/09 00:57:39;;;;;;;27.63;20.27;;;;;;;;;;5054804;28;20794;-64
2021/10/09 01:00:07;;;;;;;28.47;19.37;;;;;;;;;;5053326;28;20402;-65
2021/10/09 01:02:36;;;;;;;31.33;20.27;;;;;;;;;;5053129;28;20421;-65
2021/10/09 01:05:02;;;;;;;32.17;21.40;;;;;;;;;;5054619;28;20527;-65
2021/10/09 01:07:29;;;;;;;27.13;18.87;;;;;;;;;;5053107;28;20484;-65
2021/10/09 01:09:55;;;;;;;30.93;20.20;;;;;;;;;;5054157;28;20484;-65
2021/10/09 01:12:21;;;;;;;29.37;21.00;;;;;;;;;;5054276;28;20851;-65
2021/10/09 01:14:47;;;;;;;32.63;22.30;;;;;;;;;;5054966;28;20762;-64
2021/10/09 01:17:13;;;;;;;32.97;20.30;;;;;;;;;;5054462;28;20419;-65
2021/10/09 01:19:40;;;;;;;26.73;19.93;;;;;;;;;;5054194;28;20409;-65
2021/10/09 01:22:06;;;;;;;30.53;20.37;;;;;;;;;;5054033;28;20394;-65
2021/10/09 01:24:32;;;;;;;26.57;20.37;;;;;;;;;;5053849;28;20459;-64
2021/10/09 01:26:58;;;;;;;29.90;19.27;;;;;;;;;;5054045;28;20490;-65
2021/10/09 01:29:24;;;;;;;30.70;19.27;;;;;;;;;;5054075;28;20424;-65
2021/10/09 01:31:50;;;;;;;31.77;20.60;;;;;;;;;;5053858;28;20455;-62
2021/10/09 01:34:23;;;;;;;30.33;20.10;;;;;;;;;;5054050;28;20410;-64
2021/10/09 01:36:49;;;;;;;33.33;21.30;;;;;;;;;;5053518;28;20410;-65
2021/10/09 01:39:15;;;;;;;35.27;20.93;;;;;;;;;;5053581;28;20907;-65
2021/10/09 01:41:44;;;;;;;34.00;21.80;;;;;;;;;;5052409;28;20748;-64
2021/10/09 01:44:10;;;;;;;35.00;22.63;;;;;;;;;;5053739;28;20416;-65
2021/10/09 01:46:36;;;;;;;32.77;21.90;;;;;;;;;;5053673;28;20504;-65
2021/10/09 01:49:03;;;;;;;27.47;20.10;;;;;;;;;;5053590;28;20399;-64
2021/10/09 01:51:30;;;;;;;44.17;21.87;;;;;;;;;;5053437;28;20442;-65
2021/10/09 01:53:56;;;;;;;28.87;19.30;;;;;;;;;;5050016;28;20434;-63
2021/10/09 01:56:22;;;;;;;28.20;21.93;;;;;;;;;;5049040;28;20451;-64
2021/10/09 01:58:48;;;;;;;31.73;22.20;;;;;;;;;;5044879;28;20501;-64
2021/10/09 02:01:14;;;;;;;37.13;22.87;;;;;;;;;;5033471;28;20410;-65
2021/10/09 02:03:40;;;;;;;32.27;23.23;;;;;;;;;;5033240;28;20403;-64
2021/10/09 02:06:06;;;;;;;34.90;21.63;;;;;;;;;;5033023;28;20407;-64
2021/10/09 02:08:33;;;;;;;32.80;21.07;;;;;;;;;;5033213;28;20518;-65
2021/10/09 02:13:34;;;;;;;31.27;23.03;;;;;;;;;;5033383;28;20460;-63
2021/10/09 02:26:41;;;;;;;31.87;23.00;;;;;;;;;;5033210;28;20422;-65
2021/10/09 02:29:07;;;;;;;35.30;23.60;;;;;;;;;;5033014;28;20476;-64
2021/10/09 02:31:33;;;;;;;34.67;22.77;;;;;;;;;;5033170;28;20510;-63
2021/10/09 02:33:59;;;;;;;34.53;23.20;;;;;;;;;;5032909;28;20426;-65
2021/10/09 02:36:25;;;;;;;33.07;23.07;;;;;;;;;;5032893;28;20423;-64
2021/10/09 02:38:51;;;;;;;38.67;23.87;;;;;;;;;;5032690;28;20436;-64
2021/10/09 02:41:17;;;;;;;36.93;26.23;;;;;;;;;;5032851;28;20410;-65
2021/10/09 02:43:43;;;;;;;35.13;24.67;;;;;;;;;;5032757;28;20485;-65
2021/10/09 02:46:09;;;;;;;31.40;23.00;;;;;;;;;;5032676;28;20433;-65
2021/10/09 02:48:37;;;;;;;38.30;23.87;;;;;;;;;;5032758;28;20406;-64
2021/10/09 02:51:03;;;;;;;38.10;23.90;;;;;;;;;;5035766;28;20454;-64
2021/10/09 02:53:29;;;;;;;35.07;24.83;;;;;;;;;;5037370;28;20490;-65
2021/10/09 02:55:55;;;;;;;39.57;24.70;;;;;;;;;;5037275;28;20864;-65
2021/10/09 02:58:21;;;;;;;37.80;23.80;;;;;;;;;;5037336;28;20471;-65
2021/10/09 03:00:47;;;;;;;34.23;23.07;;;;;;;;;;5035410;28;20422;-64
2021/10/09 03:03:13;;;;;;;35.23;24.10;;;;;;;;;;5037110;28;20414;-65
2021/10/09 03:05:40;;;;;;;38.50;24.50;;;;;;;;;;5037084;28;20414;-63
2021/10/09 03:08:06;;;;;;;37.47;25.23;;;;;;;;;;5037181;28;20484;-65
2021/10/09 03:10:32;;;;;;;36.50;24.20;;;;;;;;;;5037155;28;20445;-62
2021/10/09 03:12:58;;;;;;;41.70;24.27;;;;;;;;;;5037043;28;20395;-65
2021/10/09 03:15:24;;;;;;;44.37;25.70;;;;;;;;;;5037217;28;20445;-64
2021/10/09 03:17:50;;;;;;;36.47;25.27;;;;;;;;;;5037163;28;20418;-65
2021/10/09 03:20:17;;;;;;;35.73;23.53;;;;;;;;;;5037554;28;20406;-65
2021/10/09 03:22:44;;;;;;;42.00;26.17;;;;;;;;;;5036448;28;20911;-65
2021/10/09 03:25:11;;;;;;;39.83;25.73;;;;;;;;;;5038306;28;20482;-64
2021/10/09 03:27:37;;;;;;;38.73;27.17;;;;;;;;;;5038157;28;20426;-65
2021/10/09 03:30:06;;;;;;;35.57;25.50;;;;;;;;;;5048296;28;20453;-64
2021/10/09 03:32:32;;;;;;;42.13;25.90;;;;;;;;;;5056027;28;20402;-67
2021/10/09 03:34:58;;;;;;;46.00;27.07;;;;;;;;;;5050383;28;20436;-65
2021/10/09 03:37:25;;;;;;;33.70;24.37;;;;;;;;;;5052313;28;20433;-65
2021/10/09 03:39:52;;;;;;;41.97;25.30;;;;;;;;;;5054892;28;20428;-65
2021/10/09 03:44:58;;;;;;;41.67;25.73;;;;;;;;;;5056061;28;20401;-65
2021/10/09 03:47:44;;;;;;;39.33;25.10;;;;;;;;;;5055815;28;20421;-65
2021/10/09 03:52:45;;;;;;;42.70;27.60;;;;;;;;;;5056182;28;20401;-64
2021/10/09 03:55:14;;;;;;;38.70;25.47;;;;;;;;;;5049342;28;20438;-65
2021/10/09 03:57:40;;;;;;;44.47;26.57;;;;;;;;;;5055722;28;20429;-64
2021/10/09 04:00:07;;;;;;;42.60;26.73;;;;;;;;;;5055994;28;20409;-65
2021/10/09 04:02:33;;;;;;;46.47;28.60;;;;;;;;;;5054523;28;20926;-65
2021/10/09 04:04:59;;;;;;;40.13;26.43;;;;;;;;;;5055543;28;20398;-65
2021/10/09 04:07:25;;;;;;;42.93;26.17;;;;;;;;;;5055636;28;20523;-65
2021/10/09 04:09:51;;;;;;;45.23;25.73;;;;;;;;;;5055565;28;20449;-65
2021/10/09 04:12:17;;;;;;;39.97;26.00;;;;;;;;;;5055535;28;20727;-64
2021/10/09 04:14:43;;;;;;;43.13;25.90;;;;;;;;;;5053814;28;20481;-64
2021/10/09 04:17:09;;;;;;;43.63;25.60;;;;;;;;;;5054816;28;20509;-64
2021/10/09 04:19:36;;;;;;;44.60;27.87;;;;;;;;;;5055284;28;20451;-65
2021/10/09 04:22:02;;;;;;;38.57;25.03;;;;;;;;;;5049478;28;20428;-63
2021/10/09 04:24:28;;;;;;;42.40;25.43;;;;;;;;;;5055501;28;20735;-65
2021/10/09 04:26:54;;;;;;;48.70;28.17;;;;;;;;;;5055480;28;20463;-64
2021/10/09 04:29:20;;;;;;;41.93;25.53;;;;;;;;;;5055296;28;20477;-64
2021/10/09 04:31:46;;;;;;;39.87;26.63;;;;;;;;;;5055104;28;20449;-65
2021/10/09 04:34:12;;;;;;;44.60;26.90;;;;;;;;;;5055332;28;20452;-65
2021/10/09 04:36:38;;;;;;;45.63;28.43;;;;;;;;;;5055284;28;20426;-64
2021/10/09 04:39:04;;;;;;;38.70;26.50;;;;;;;;;;5055007;28;20401;-65
2021/10/09 04:41:30;;;;;;;44.33;28.60;;;;;;;;;;5055258;28;20417;-63
2021/10/09 04:43:57;;;;;;;44.67;28.63;;;;;;;;;;5054982;28;20410;-64
2021/10/09 04:46:23;;;;;;;39.83;25.80;;;;;;;;;;5054883;28;20405;-65
2021/10/09 04:48:49;;;;;;;43.80;29.87;;;;;;;;;;5055086;28;20484;-65
2021/10/09 04:51:15;;;;;;;47.03;30.20;;;;;;;;;;5054896;28;20941;-65
2021/10/09 04:53:41;;;;;;;45.17;27.57;;;;;;;;;;5053897;28;20398;-64
2021/10/09 04:56:07;;;;;;;43.33;28.17;;;;;;;;;;5054802;28;20433;-65
2021/10/09 04:58:33;;;;;;;43.00;28.13;;;;;;;;;;5054609;28;20398;-65
2021/10/09 05:00:59;;;;;;;42.50;27.30;;;;;;;;;;5054562;28;20402;-62
2021/10/09 05:03:25;;;;;;;40.20;28.17;;;;;;;;;;5054477;28;20410;-64
2021/10/09 05:05:51;;;;;;;41.73;28.07;;;;;;;;;;5054450;28;20476;-64
2021/10/09 05:08:18;;;;;;;38.80;26.60;;;;;;;;;;5054362;28;20461;-63
2021/10/09 05:10:44;;;;;;;42.13;26.83;;;;;;;;;;5054325;28;20469;-64
2021/10/09 05:13:10;;;;;;;35.77;25.77;;;;;;;;;;5051443;28;20801;-63
2021/10/09 05:15:42;;;;;;;37.27;26.50;;;;;;;;;;5054332;28;20898;-65
2021/10/09 05:18:09;;;;;;;34.20;23.60;;;;;;;;;;5053045;28;20434;-64
2021/10/09 05:20:35;;;;;;;35.87;23.43;;;;;;;;;;5054507;28;20745;-64
2021/10/09 05:23:01;;;;;;;38.23;23.47;;;;;;;;;;5065427;22;20484;-81
2021/10/09 05:25:28;;;;;;;41.20;25.50;;;;;;;;;;5084933;28;20405;-82
2021/10/09 05:27:59;;;;;;;37.00;24.67;;;;;;;;;;5088803;28;20788;-81
2021/10/09 05:30:26;;;;;;;37.00;25.07;;;;;;;;;;5084166;28;20445;-82
2021/10/09 05:33:00;;;;;;;37.27;23.00;;;;;;;;;;5084817;28;20434;-81
2021/10/09 05:35:26;;;;;;;34.03;26.00;;;;;;;;;;5068636;28;20378;-81
2021/10/09 05:37:52;;;;;;;34.10;23.93;;;;;;;;;;5069003;28;20421;-82
2021/10/09 05:40:18;;;;;;;36.70;26.60;;;;;;;;;;5069341;28;20485;-81
2021/10/09 05:42:44;;;;;;;41.20;26.07;;;;;;;;;;5084077;28;20430;-82
2021/10/09 05:45:10;;;;;;;42.60;25.03;;;;;;;;;;5068545;28;20420;-82
2021/10/09 05:47:38;;;;;;;43.60;26.40;;;;;;;;;;5068392;28;20414;-82
2021/10/09 05:50:08;;;;;;;35.90;24.13;;;;;;;;;;5068464;28;20480;-82
2021/10/09 05:52:41;;;;;;;37.90;25.97;;;;;;;;;;5083504;28;20505;-82
2021/10/09 05:57:39;;;;;;;35.23;25.23;;;;;;;;;;5077069;28;20445;-81
2021/10/09 06:00:27;;;;;;;38.20;26.10;;;;;;;;;;5072283;28;20393;-82
2021/10/09 07:00:01;;;;;;;40.30;26.13;;;;;;;;;;5067899;28;20777;-81
2021/10/09 07:02:27;;;;;;;37.07;25.63;;;;;;;;;;5067339;28;20444;-81
2021/10/09 07:04:53;;;;;;;33.67;24.53;;;;;;;;;;5066577;28;20417;-82
2021/10/09 07:07:20;;;;;;;42.23;26.30;;;;;;;;;;5067210;28;20777;-81
2021/10/09 07:09:46;;;;;;;35.20;25.80;;;;;;;;;;5083365;28;20862;-81
2021/10/09 07:12:12;;;;;;;39.53;26.60;;;;;;;;;;5067390;28;20429;-81
2021/10/09 07:14:38;;;;;;;40.93;26.07;;;;;;;;;;5082588;28;20417;-81
2021/10/09 07:17:04;;;;;;;35.90;24.23;;;;;;;;;;5082708;28;20914;-81
2021/10/09 07:19:30;;;;;;;36.40;24.80;;;;;;;;;;5067799;28;20425;-81
2021/10/09 07:21:56;;;;;;;40.33;25.70;;;;;;;;;;5067968;28;20410;-81
2021/10/09 07:24:22;;;;;;;38.13;25.77;;;;;;;;;;5066713;28;20524;-81
2021/10/09 07:26:48;;;;;;;39.50;23.63;;;;;;;;;;5066697;28;20417;-81
2021/10/09 07:29:14;;;;;;;38.83;24.20;;;;;;;;;;5082947;28;20414;-81
2021/10/09 07:31:43;;;;;;;37.90;24.97;;;;;;;;;;5067179;28;20453;-80
2021/10/09 07:34:09;;;;;;;36.47;25.63;;;;;;;;;;5066932;28;20432;-80
2021/10/09 07:36:35;;;;;;;34.23;23.83;;;;;;;;;;5069195;28;20394;-80
2021/10/09 07:39:01;;;;;;;35.40;23.40;;;;;;;;;;5071784;28;20420;-80
2021/10/09 07:41:27;;;;;;;36.57;24.20;;;;;;;;;;5070816;28;20401;-81
2021/10/09 07:43:53;;;;;;;35.03;25.07;;;;;;;;;;5086202;28;20440;-81
2021/10/09 07:46:19;;;;;;;36.17;23.40;;;;;;;;;;5086444;28;20476;-81
2021/10/09 07:48:45;;;;;;;34.73;22.60;;;;;;;;;;5071490;28;20397;-81
2021/10/09 07:51:11;;;;;;;38.63;23.73;;;;;;;;;;5087285;28;20449;-80
2021/10/09 07:53:37;;;;;;;38.40;23.80;;;;;;;;;;5086345;28;20972;-81
2021/10/09 07:56:04;;;;;;;32.03;23.73;;;;;;;;;;5087059;28;20409;-80
2021/10/09 07:58:30;;;;;;;36.00;24.43;;;;;;;;;;5059073;28;20453;-79
2021/10/09 08:00:56;;;;;;;36.07;23.30;;;;;;;;;;5076978;28;20470;-79
2021/10/09 08:03:24;;;;;;;35.43;23.67;;;;;;;;;;5079484;28;20438;-79
2021/10/09 08:05:52;;;;;;;37.37;24.90;;;;;;;;;;5065726;28;20418;-80
2021/10/09 08:08:18;;;;;;;32.57;23.57;;;;;;;;;;5066199;28;20501;-80
2021/10/09 08:10:45;;;;;;;32.30;23.37;;;;;;;;;;5083007;28;20515;-80
2021/10/09 08:13:12;;;;;;;34.10;24.77;;;;;;;;;;5083837;28;20487;-81
2021/10/09 08:15:38;;;;;;;34.43;22.90;;;;;;;;;;5087985;28;20402;-81
2021/10/09 08:18:04;;;;;;;39.20;26.20;;;;;;;;;;5094019;28;20417;-80
2021/10/09 08:20:30;;;;;;;37.60;25.40;;;;;;;;;;5071263;28;20432;-80
2021/10/09 08:23:07;;;;;;;36.40;25.40;;;;;;;;;;5070427;28;20455;-80
2021/10/09 08:35:24;;;;;;;35.97;25.10;;;;;;;;;;5071365;28;20405;-80
2021/10/09 08:36:38;;;;;;;36.63;22.73;;;;;;;;;;5069539;28;20394;-80
2021/10/09 08:39:08;;;;;;;40.73;25.60;;;;;;;;;;5069598;28;20424;-81
2021/10/09 08:41:34;;;;;;;39.13;27.77;;;;;;;;;;5085580;28;20390;-80
2021/10/09 08:44:00;;;;;;;43.07;26.10;;;;;;;;;;5084192;28;20428;-79
2021/10/09 08:46:26;;;;;;;39.87;25.67;;;;;;;;;;5069542;28;20421;-80
2021/10/09 08:48:53;;;;;;;37.40;24.43;;;;;;;;;;5084542;28;20912;-81
2021/10/09 08:51:29;;;;;;;37.67;24.90;;;;;;;;;;5070014;28;20453;-80
2021/10/09 08:53:56;;;;;;;36.93;23.30;;;;;;;;;;5069984;28;20429;-81
2021/10/09 08:56:34;;;;;;;36.17;23.90;;;;;;;;;;5085873;28;20401;-80
2021/10/09 08:59:29;;;;;;;32.37;22.63;;;;;;;;;;5069376;28;20416;-80
2021/10/09 09:02:15;;;;;;;26.97;19.83;;;;;;;;;;5067789;28;20429;-79
2021/10/09 09:39:59;;;;;;;29.53;20.07;;;;;;;;;;5066989;28;20516;-81
2021/10/09 09:42:25;;;;;;;28.57;20.27;;;;;;;;;;5049833;28;20525;-81
2021/10/09 09:44:58;;;;;;;28.67;19.23;;;;;;;;;;5047250;28;20421;-84
2021/10/09 09:47:34;;;;;;;28.57;19.93;;;;;;;;;;5047278;28;20399;-81
2021/10/09 09:50:05;;;;;;;26.07;19.07;;;;;;;;;;5048566;28;20969;-81
2021/10/09 09:52:35;;;;;;;28.77;18.33;;;;;;;;;;5053433;28;20450;-81
2021/10/09 09:55:02;;;;;;;29.03;19.60;;;;;;;;;;5051227;28;20407;-81
2021/10/09 09:57:29;;;;;;;34.30;20.03;;;;;;;;;;5048725;28;20497;-81
2021/10/09 09:59:56;;;;;;;31.60;21.37;;;;;;;;;;5082398;28;20425;-81
2021/10/09 10:02:23;;;;;;;34.03;20.37;;;;;;;;;;5067153;28;20432;-81
2021/10/09 10:04:49;;;;;;;27.57;19.83;;;;;;;;;;5067401;28;20453;-81
2021/10/09 10:07:17;;;;;;;29.57;20.73;;;;;;;;;;5084825;28;20422;-79
2021/10/09 10:09:43;;;;;;;32.47;20.10;;;;;;;;;;5086953;28;20474;-79
2021/10/09 10:12:09;;;;;;;27.67;18.57;;;;;;;;;;5083857;28;20401;-80
2021/10/09 10:14:35;;;;;;;32.40;20.57;;;;;;;;;;5067744;28;20473;-81
2021/10/09 10:17:01;;;;;;;26.40;18.97;;;;;;;;;;5082400;28;20398;-80
2021/10/09 10:19:46;;;;;;;27.00;20.00;;;;;;;;;;5082749;28;20578;-80
2021/10/09 10:22:12;;;;;;;27.67;20.90;;;;;;;;;;5083121;28;20512;-80
2021/10/09 10:24:42;;;;;;;30.53;20.83;;;;;;;;;;5067617;28;20922;-80
2021/10/09 10:27:27;;;;;;;28.87;19.80;;;;;;;;;;5082146;28;20468;-82
2021/10/09 10:30:12;;;;;;;29.23;20.63;;;;;;;;;;5082723;28;20492;-81
2021/10/09 10:32:38;;;;;;;34.50;22.67;;;;;;;;;;5066658;28;20428;-82
2021/10/09 10:35:23;;;;;;;32.83;21.77;;;;;;;;;;5083280;28;20393;-82
2021/10/09 10:37:49;;;;;;;31.00;21.80;;;;;;;;;;5067409;28;20405;-81
2021/10/09 10:40:35;;;;;;;29.93;21.73;;;;;;;;;;5066196;28;20429;-82
2021/10/09 10:43:21;;;;;;;34.20;23.53;;;;;;;;;;5082233;28;20437;-80
2021/10/09 10:45:47;;;;;;;31.30;20.60;;;;;;;;;;5065330;28;20469;-81
2021/10/09 10:48:33;;;;;;;32.90;20.43;;;;;;;;;;5066937;28;20416;-82
2021/10/09 10:51:10;;;;;;;27.23;19.73;;;;;;;;;;5066638;28;20811;-80
2021/10/09 10:56:35;;;;;;;31.43;19.77;;;;;;;;;;5066010;28;20388;-81
2021/10/09 10:59:19;;;;;;;24.60;18.90;;;;;;;;;;5080029;28;20501;-79
2021/10/09 11:01:46;;;;;;;27.57;19.10;;;;;;;;;;5080315;28;20405;-80
2021/10/09 11:04:12;;;;;;;24.40;19.03;;;;;;;;;;5064824;28;20770;-81
2021/10/09 11:06:38;;;;;;;26.27;19.33;;;;;;;;;;5080363;28;20835;-82
2021/10/09 11:09:04;;;;;;;26.67;18.43;;;;;;;;;;5064412;28;20410;-82
2021/10/09 11:11:34;;;;;;;26.03;18.07;;;;;;;;;;5067568;28;20453;-80
2021/10/09 11:14:00;;;;;;;25.30;17.33;;;;;;;;;;5080278;22;20502;-60
2021/10/09 11:16:30;;;;;;;28.43;19.63;;;;;;;;;;5017091;28;20550;-60
2021/10/09 11:18:56;;;;;;;22.17;17.57;;;;;;;;;;5017216;28;20931;-60
2021/10/09 11:21:22;;;;;;;24.93;18.53;;;;;;;;;;5017070;28;20407;-61
2021/10/09 11:23:55;;;;;;;24.43;17.10;;;;;;;;;;5017540;28;20411;-61
2021/10/09 11:26:22;;;;;;;24.83;17.57;;;;;;;;;;5018542;28;20497;-61
2021/10/09 11:29:09;;;;;;;25.83;16.67;;;;;;;;;;5020242;28;20454;-61
2021/10/09 11:31:35;;;;;;;24.13;17.30;;;;;;;;;;5020347;28;20894;-62
2021/10/09 11:34:02;;;;;;;31.50;17.27;;;;;;;;;;5020202;28;20449;-62
2021/10/09 11:36:29;;;;;;;20.73;15.10;;;;;;;;;;5019720;28;20399;-62
2021/10/09 11:39:05;;;;;;;23.87;15.53;;;;;;;;;;5019392;28;20419;-61
2021/10/09 11:41:31;;;;;;;26.03;16.70;;;;;;;;;;5020038;28;20434;-61
2021/10/09 11:44:07;;;;;;;28.80;18.50;;;;;;;;;;5019784;28;20426;-61
2021/10/09 11:57:29;;;;;;;19.40;13.47;;;;;;;;;;5019412;28;20399;-62
2021/10/09 11:59:55;;;;;;;18.40;13.50;;;;;;;;;;5031321;28;20830;-62
2021/10/09 12:02:36;;;;;;;19.17;14.43;;;;;;;;;;5039084;28;20395;-62
2021/10/09 12:05:02;;;;;;;18.23;14.13;;;;;;;;;;5039238;28;20410;-60
2021/10/09 12:07:28;;;;;;;20.23;14.27;;;;;;;;;;5038219;28;20806;-61
2021/10/09 12:10:00;;;;;;;16.97;12.53;;;;;;;;;;5038278;28;20426;-60
2021/10/09 12:12:35;;;;;;;24.13;14.27;;;;;;;;;;5038965;28;20842;-62
2021/10/09 12:15:01;;;;;;;17.27;13.07;;;;;;;;;;5038379;28;20414;-61
2021/10/09 12:17:34;;;;;;;18.90;12.40;;;;;;;;;;5038612;28;20391;-62
2021/10/09 12:20:02;;;;;;;20.23;12.47;;;;;;;;;;5039375;28;20890;-62
2021/10/09 12:22:28;;;;;;;17.20;12.80;;;;;;;;;;5037963;28;20464;-62
2021/10/09 12:24:55;;;;;;;24.77;13.50;;;;;;;;;;5038437;28;20493;-61
2021/10/09 12:27:28;;;;;;;19.10;12.77;;;;;;;;;;5038044;28;20418;-59
2021/10/09 12:30:08;;;;;;;15.40;12.60;;;;;;;;;;5038102;28;20441;-59
2021/10/09 12:32:43;;;;;;;20.63;13.00;;;;;;;;;;5038416;28;20952;-61
2021/10/09 12:35:29;;;;;;;18.67;12.80;;;;;;;;;;5038348;28;20398;-61
2021/10/09 12:38:03;;;;;;;17.67;11.90;;;;;;;;;;5038871;28;20796;-61
2021/10/09 12:40:46;;;;;;;17.27;12.20;;;;;;;;;;5037379;28;20785;-61
2021/10/09 12:43:13;;;;;;;14.83;11.43;;;;;;;;;;5038245;28;20406;-61
2021/10/09 12:45:40;;;;;;;20.00;11.53;;;;;;;;;;5037759;28;20410;-58
2021/10/09 12:48:06;;;;;;;19.00;11.97;;;;;;;;;;5037925;28;20445;-61
2021/10/09 12:50:34;;;;;;;18.17;12.00;;;;;;;;;;5037425;28;20457;-62
2021/10/09 12:53:01;;;;;;;17.30;11.50;;;;;;;;;;5037975;28;20449;-61
2021/10/09 12:55:28;;;;;;;15.17;10.30;;;;;;;;;;5038682;28;20859;-61
2021/10/09 12:57:58;;;;;;;19.57;9.47;;;;;;;;;;5038380;28;20453;-61
2021/10/09 13:00:26;;;;;;;10.07;7.93;;;;;;;;;;5038954;28;20823;-60
2021/10/09 13:02:52;;;;;;;11.37;7.93;;;;;;;;;;5038127;28;20894;-61
2021/10/09 13:05:22;;;;;;;20.20;9.40;;;;;;;;;;5038572;28;20496;-60
2021/10/09 13:07:48;;;;;;;11.70;8.10;;;;;;;;;;5038604;28;20409;-61
2021/10/09 13:10:15;;;;;;;11.93;8.07;;;;;;;;;;5039014;28;20813;-61
2021/10/09 13:12:41;;;;;;;13.13;8.40;;;;;;;;;;5038337;28;20406;-61
2021/10/09 13:15:08;;;;;;;11.80;8.20;;;;;;;;;;5038050;28;20522;-61
2021/10/09 13:17:34;;;;;;;13.97;9.57;;;;;;;;;;5038872;28;20411;-61
2021/10/09 13:20:00;;;;;;;20.83;8.33;;;;;;;;;;5038897;28;20469;-63
2021/10/09 13:22:26;;;;;;;14.53;9.70;;;;;;;;;;5038755;28;20414;-63
2021/10/09 13:24:52;;;;;;;14.60;8.80;;;;;;;;;;5038581;28;20421;-61
2021/10/09 13:27:18;;;;;;;16.53;9.93;;;;;;;;;;5038425;28;20595;-61
2021/10/09 13:29:44;;;;;;;16.10;10.83;;;;;;;;;;5038098;28;20430;-61
2021/10/09 13:32:10;;;;;;;18.00;11.10;;;;;;;;;;5037547;28;20467;-61
2021/10/09 13:34:36;;;;;;;15.70;11.03;;;;;;;;;;5036306;28;20467;-61
2021/10/09 13:37:02;;;;;;;13.00;9.93;;;;;;;;;;5036519;28;20395;-62
2021/10/09 13:39:28;;;;;;;12.13;8.63;;;;;;;;;;5037114;28;20421;-63
2021/10/09 13:41:54;;;;;;;12.13;7.20;;;;;;;;;;5037596;28;20819;-63
2021/10/09 13:44:20;;;;;;;13.50;7.90;;;;;;;;;;5037290;28;20481;-63
2021/10/09 13:46:46;;;;;;;11.30;7.80;;;;;;;;;;5037076;28;20410;-62
2021/10/09 13:49:12;;;;;;;14.70;8.10;;;;;;;;;;5036953;28;20422;-63
2021/10/09 13:51:38;;;;;;;9.90;7.30;;;;;;;;;;5036779;28;20450;-63
2021/10/09 13:54:04;;;;;;;9.07;7.17;;;;;;;;;;5036483;28;20434;-62
2021/10/09 13:56:30;;;;;;;12.83;7.87;;;;;;;;;;5037126;28;20418;-62
2021/10/09 13:58:56;;;;;;;13.50;7.70;;;;;;;;;;5034456;28;20422;-63
2021/10/09 14:01:22;;;;;;;14.80;8.37;;;;;;;;;;5031036;28;20418;-62
2021/10/09 14:03:49;;;;;;;12.73;8.27;;;;;;;;;;5036828;28;20426;-62
2021/10/09 14:06:15;;;;;;;15.10;8.97;;;;;;;;;;5036947;28;20438;-62
2021/10/09 14:08:41;;;;;;;14.83;8.67;;;;;;;;;;5037279;28;20775;-62
2021/10/09 14:11:07;;;;;;;14.13;8.57;;;;;;;;;;5036678;28;20515;-62
2021/10/09 14:13:33;;;;;;;18.63;8.93;;;;;;;;;;5037265;28;20430;-62
2021/10/09 14:15:59;;;;;;;11.70;7.63;;;;;;;;;;5037286;28;20422;-62
2021/10/09 14:18:25;;;;;;;11.93;7.97;;;;;;;;;;5036947;28;20417;-62
2021/10/09 14:20:53;;;;;;;14.20;8.97;;;;;;;;;;5036658;28;20437;-64
2021/10/09 14:23:20;;;;;;;15.80;8.23;;;;;;;;;;5035236;28;20428;-62
2021/10/09 14:25:46;;;;;;;16.67;9.20;;;;;;;;;;5032568;28;20769;-61
2021/10/09 14:28:12;;;;;;;13.10;10.30;;;;;;;;;;5033384;28;20942;-64
2021/10/09 14:30:39;;;;;;;15.37;9.27;;;;;;;;;;5031752;28;20512;-66
2021/10/09 14:33:06;;;;;;;12.73;8.53;;;;;;;;;;5032389;28;20414;-64
2021/10/09 14:35:32;;;;;;;14.63;9.80;;;;;;;;;;5034510;28;20430;-63
2021/10/09 14:37:59;;;;;;;16.40;10.50;;;;;;;;;;5033254;28;20444;-64
2021/10/09 14:40:25;;;;;;;22.50;10.27;;;;;;;;;;5034861;28;20568;-64
2021/10/09 14:42:52;;;;;;;12.70;8.60;;;;;;;;;;5035515;28;20414;-65
2021/10/09 14:45:18;;;;;;;12.73;8.67;;;;;;;;;;5035060;28;20910;-63
2021/10/09 14:50:44;;;;;;;12.60;7.90;;;;;;;;;;5035064;28;20812;-63
2021/10/09 14:53:19;;;;;;;13.10;8.93;;;;;;;;;;5035389;28;20395;-63
2021/10/09 15:18:29;;;;;;;11.60;8.93;;;;;;;;;;5035204;28;20410;-64
2021/10/09 15:20:36;;;;;;;17.93;10.30;;;;;;;;;;5031508;28;20473;-64
2021/10/09 15:23:02;;;;;;;21.13;8.13;;;;;;;;;;5034489;28;20501;-64
2021/10/09 15:25:29;;;;;;;11.90;9.17;;;;;;;;;;5034304;28;20404;-64
2021/10/09 15:27:55;;;;;;;12.40;8.27;;;;;;;;;;5034698;28;20406;-64
2021/10/09 15:30:21;;;;;;;12.37;8.50;;;;;;;;;;5034135;28;20546;-62
2021/10/09 15:32:47;;;;;;;15.70;8.27;;;;;;;;;;5033967;28;20402;-63
2021/10/09 15:35:13;;;;;;;13.00;7.87;;;;;;;;;;5034336;28;20513;-63
2021/10/09 15:37:39;;;;;;;13.40;8.10;;;;;;;;;;5034023;28;20466;-63
2021/10/09 15:40:05;;;;;;;13.00;7.93;;;;;;;;;;5033975;28;20434;-63
2021/10/09 15:42:31;;;;;;;13.20;8.13;;;;;;;;;;5032658;28;20437;-63
2021/10/09 15:44:57;;;;;;;12.30;7.20;;;;;;;;;;5034441;28;20402;-63
2021/10/09 15:47:24;;;;;;;11.87;8.77;;;;;;;;;;5034725;28;20482;-63
2021/10/09 15:49:50;;;;;;;18.23;9.30;;;;;;;;;;5034152;28;20418;-63
2021/10/09 15:52:16;;;;;;;12.20;8.37;;;;;;;;;;5033423;28;20552;-63
2021/10/09 15:54:42;;;;;;;9.60;7.67;;;;;;;;;;5033416;28;20422;-63
2021/10/09 15:57:09;;;;;;;13.57;8.40;;;;;;;;;;5034024;28;20398;-62
2021/10/09 15:59:35;;;;;;;13.13;8.50;;;;;;;;;;5037398;28;20485;-63
2021/10/09 16:02:01;;;;;;;13.57;8.00;;;;;;;;;;5033452;28;20434;-63
2021/10/09 16:04:27;;;;;;;11.30;8.10;;;;;;;;;;5036735;28;20933;-63
2021/10/09 16:06:55;;;;;;;13.43;8.90;;;;;;;;;;5036758;28;20407;-63
2021/10/09 16:09:21;;;;;;;9.30;7.50;;;;;;;;;;5036624;28;20458;-62
2021/10/09 16:11:47;;;;;;;11.60;8.43;;;;;;;;;;5035980;28;20513;-63
2021/10/09 16:14:14;;;;;;;10.00;8.17;;;;;;;;;;5036654;28;20422;-63
2021/10/09 16:16:40;;;;;;;15.30;8.30;;;;;;;;;;5036317;28;20394;-62
2021/10/09 16:19:06;;;;;;;11.13;8.57;;;;;;;;;;5036221;28;20909;-63
2021/10/09 16:21:32;;;;;;;17.37;9.37;;;;;;;;;;5036066;28;20408;-62
2021/10/09 16:23:58;;;;;;;14.23;8.33;;;;;;;;;;5036285;28;20485;-63
2021/10/09 16:26:24;;;;;;;14.60;8.77;;;;;;;;;;5036101;28;20763;-63
2021/10/09 16:28:50;;;;;;;12.57;8.43;;;;;;;;;;5036338;28;20418;-63
2021/10/09 16:31:17;;;;;;;14.97;8.83;;;;;;;;;;5035916;28;20446;-63
2021/10/09 16:33:43;;;;;;;11.57;8.00;;;;;;;;;;5036202;28;20398;-65
2021/10/09 16:36:09;;;;;;;14.47;10.07;;;;;;;;;;5036990;28;20395;-63
2021/10/09 16:38:35;;;;;;;19.63;10.40;;;;;;;;;;5036835;28;20837;-64
2021/10/09 16:41:01;;;;;;;14.73;8.73;;;;;;;;;;5036847;28;20438;-64
2021/10/09 16:43:27;;;;;;;14.40;8.80;;;;;;;;;;5037005;28;20414;-63
2021/10/09 16:45:53;;;;;;;17.90;9.57;;;;;;;;;;5036563;28;20413;-62
2021/10/09 16:48:19;;;;;;;14.80;9.63;;;;;;;;;;5036088;28;20560;-63
2021/10/09 16:50:45;;;;;;;17.37;10.83;;;;;;;;;;5036599;28;20446;-63
2021/10/09 16:53:11;;;;;;;15.63;9.57;;;;;;;;;;5036236;28;20399;-63
2021/10/09 16:55:38;;;;;;;16.33;9.73;;;;;;;;;;5036087;28;20434;-63
2021/10/09 16:58:04;;;;;;;16.33;10.00;;;;;;;;;;5035777;28;20758;-63
2021/10/09 17:00:30;;;;;;;15.40;9.33;;;;;;;;;;5035995;28;20834;-63
2021/10/09 17:02:56;;;;;;;12.53;9.33;;;;;;;;;;5035708;28;20442;-63
2021/10/09 17:05:22;;;;;;;19.50;9.77;;;;;;;;;;5035567;28;20413;-63